sensor_id;sensor_type;location;lat;lon;timestamp;P1;durP1;ratioP1;P2;durP2;ratioP2
11187;SDS011;5650;52.700;7.306;2023-09-07T00:01:38;3.95;;;2.30;;
11187;SDS011;5650;52.700;7.306;2023-09-07T00:04:06;6.78;;;2.85;;
11187;SDS011;5650;52.700;7.306;2023-09-07T00:06:33;4.43;;;2.75;;
11187;SDS011;5650;52.700;7.306;2023-09-07T00:09:03;4.50;;;2.65;;
11187;SDS011;5650;52.700;7.306;2023-09-07T00:11:31;10.25;;;2.65;;
11187;SDS011;5650;52.700;7.306;2023-09-07T00:14:00;4.03;;;2.40;;
11187;SDS011;5650;52.700;7.306;2023-09-07T00:16:31;7.35;;;2.92;;
11187;SDS011;5650;52.700;7.306;2023-09-07T00:19:00;4.13;;;2.60;;
11187;SDS011;5650;52.700;7.306;2023-09-07T00:21:28;7.85;;;2.97;;
11187;SDS011;5650;52.700;7.306;2023-09-07T00:23:58;5.30;;;2.67;;
11187;SDS011;5650;52.700;7.306;2023-09-07T00:26:36;3.40;;;2.80;;
11187;SDS011;5650;52.700;7.306;2023-09-07T00:29:05;5.93;;;2.90;;
11187;SDS011;5650;52.700;7.306;2023-09-07T00:31:32;5.05;;;2.70;;
11187;SDS011;5650;52.700;7.306;2023-09-07T00:34:02;5.65;;;3.25;;
11187;SDS011;5650;52.700;7.306;2023-09-07T00:36:30;3.17;;;2.55;;
11187;SDS011;5650;52.700;7.306;2023-09-07T00:38:57;6.70;;;2.80;;
11187;SDS011;5650;52.700;7.306;2023-09-07T00:41:25;6.47;;;2.67;;
11187;SDS011;5650;52.700;7.306;2023-09-07T00:43:52;4.13;;;2.90;;
11187;SDS011;5650;52.700;7.306;2023-09-07T00:46:24;4.82;;;3.10;;
11187;SDS011;5650;52.700;7.306;2023-09-07T00:48:52;4.97;;;2.60;;
11187;SDS011;5650;52.700;7.306;2023-09-07T00:51:19;7.07;;;3.33;;
11187;SDS011;5650;52.700;7.306;2023-09-07T00:53:49;3.40;;;2.70;;
11187;SDS011;5650;52.700;7.306;2023-09-07T00:56:17;3.92;;;2.90;;
11187;SDS011;5650;52.700;7.306;2023-09-07T00:58:57;3.97;;;2.70;;
11187;SDS011;5650;52.700;7.306;2023-09-07T01:01:26;2.88;;;2.58;;
11187;SDS011;5650;52.700;7.306;2023-09-07T01:03:54;5.22;;;2.97;;
11187;SDS011;5650;52.700;7.306;2023-09-07T01:06:22;4.45;;;3.00;;
11187;SDS011;5650;52.700;7.306;2023-09-07T01:08:56;3.08;;;2.75;;
11187;SDS011;5650;52.700;7.306;2023-09-07T01:11:35;4.38;;;2.50;;
11187;SDS011;5650;52.700;7.306;2023-09-07T01:14:09;5.43;;;3.08;;
11187;SDS011;5650;52.700;7.306;2023-09-07T01:16:38;5.63;;;2.80;;
11187;SDS011;5650;52.700;7.306;2023-09-07T01:19:05;5.68;;;3.10;;
11187;SDS011;5650;52.700;7.306;2023-09-07T01:21:36;8.55;;;3.20;;
11187;SDS011;5650;52.700;7.306;2023-09-07T01:24:05;5.43;;;3.20;;
11187;SDS011;5650;52.700;7.306;2023-09-07T01:26:43;2.92;;;2.72;;
11187;SDS011;5650;52.700;7.306;2023-09-07T01:29:14;6.22;;;3.00;;
11187;SDS011;5650;52.700;7.306;2023-09-07T01:31:47;5.45;;;3.03;;
11187;SDS011;5650;52.700;7.306;2023-09-07T01:34:14;3.78;;;2.92;;
11187;SDS011;5650;52.700;7.306;2023-09-07T01:36:44;4.07;;;3.20;;
11187;SDS011;5650;52.700;7.306;2023-09-07T01:39:12;4.63;;;3.05;;
11187;SDS011;5650;52.700;7.306;2023-09-07T01:41:39;7.65;;;3.13;;
11187;SDS011;5650;52.700;7.306;2023-09-07T01:44:06;6.43;;;3.10;;
11187;SDS011;5650;52.700;7.306;2023-09-07T01:46:39;6.40;;;3.38;;
11187;SDS011;5650;52.700;7.306;2023-09-07T01:49:09;5.80;;;2.90;;
11187;SDS011;5650;52.700;7.306;2023-09-07T01:51:36;4.30;;;3.10;;
11187;SDS011;5650;52.700;7.306;2023-09-07T01:54:07;6.68;;;3.30;;
11187;SDS011;5650;52.700;7.306;2023-09-07T01:56:35;5.82;;;3.20;;
11187;SDS011;5650;52.700;7.306;2023-09-07T01:59:04;7.18;;;2.67;;
11187;SDS011;5650;52.700;7.306;2023-09-07T02:01:31;5.10;;;2.90;;
11187;SDS011;5650;52.700;7.306;2023-09-07T02:04:01;6.45;;;3.45;;
11187;SDS011;5650;52.700;7.306;2023-09-07T02:06:29;5.22;;;2.95;;
11187;SDS011;5650;52.700;7.306;2023-09-07T02:09:02;12.27;;;3.13;;
11187;SDS011;5650;52.700;7.306;2023-09-07T02:11:31;5.45;;;3.38;;
11187;SDS011;5650;52.700;7.306;2023-09-07T02:13:59;4.30;;;3.40;;
11187;SDS011;5650;52.700;7.306;2023-09-07T02:16:29;4.72;;;3.47;;
11187;SDS011;5650;52.700;7.306;2023-09-07T02:19:00;4.43;;;3.38;;
11187;SDS011;5650;52.700;7.306;2023-09-07T02:21:29;5.78;;;3.17;;
11187;SDS011;5650;52.700;7.306;2023-09-07T02:23:57;5.43;;;3.75;;
11187;SDS011;5650;52.700;7.306;2023-09-07T02:26:24;6.38;;;3.67;;
11187;SDS011;5650;52.700;7.306;2023-09-07T02:28:53;7.50;;;4.25;;
11187;SDS011;5650;52.700;7.306;2023-09-07T02:31:20;6.13;;;3.80;;
11187;SDS011;5650;52.700;7.306;2023-09-07T02:33:47;3.92;;;3.33;;
11187;SDS011;5650;52.700;7.306;2023-09-07T02:36:14;4.78;;;3.50;;
11187;SDS011;5650;52.700;7.306;2023-09-07T02:38:41;7.28;;;3.60;;
11187;SDS011;5650;52.700;7.306;2023-09-07T02:41:13;9.00;;;4.50;;
11187;SDS011;5650;52.700;7.306;2023-09-07T02:43:41;9.10;;;4.05;;
11187;SDS011;5650;52.700;7.306;2023-09-07T02:46:21;5.43;;;4.30;;
11187;SDS011;5650;52.700;7.306;2023-09-07T02:48:49;4.22;;;3.80;;
11187;SDS011;5650;52.700;7.306;2023-09-07T02:51:22;4.45;;;3.75;;
11187;SDS011;5650;52.700;7.306;2023-09-07T02:53:49;7.25;;;4.18;;
11187;SDS011;5650;52.700;7.306;2023-09-07T02:56:23;8.68;;;4.50;;
11187;SDS011;5650;52.700;7.306;2023-09-07T02:58:55;6.85;;;4.57;;
11187;SDS011;5650;52.700;7.306;2023-09-07T03:01:22;5.70;;;4.38;;
11187;SDS011;5650;52.700;7.306;2023-09-07T03:03:49;7.45;;;4.28;;
11187;SDS011;5650;52.700;7.306;2023-09-07T03:06:19;6.65;;;4.93;;
11187;SDS011;5650;52.700;7.306;2023-09-07T03:08:46;5.13;;;4.30;;
11187;SDS011;5650;52.700;7.306;2023-09-07T03:11:16;7.78;;;4.35;;
11187;SDS011;5650;52.700;7.306;2023-09-07T03:13:47;10.50;;;4.97;;
11187;SDS011;5650;52.700;7.306;2023-09-07T03:16:15;5.88;;;4.38;;
11187;SDS011;5650;52.700;7.306;2023-09-07T03:18:45;7.55;;;4.57;;
11187;SDS011;5650;52.700;7.306;2023-09-07T03:21:15;7.22;;;4.53;;
11187;SDS011;5650;52.700;7.306;2023-09-07T03:23:43;4.90;;;4.30;;
11187;SDS011;5650;52.700;7.306;2023-09-07T03:26:11;7.55;;;4.80;;
11187;SDS011;5650;52.700;7.306;2023-09-07T03:28:38;5.07;;;4.50;;
11187;SDS011;5650;52.700;7.306;2023-09-07T03:31:05;4.60;;;4.20;;
11187;SDS011;5650;52.700;7.306;2023-09-07T03:33:33;6.10;;;4.70;;
11187;SDS011;5650;52.700;7.306;2023-09-07T03:36:01;6.78;;;4.53;;
11187;SDS011;5650;52.700;7.306;2023-09-07T03:38:28;6.78;;;5.03;;
11187;SDS011;5650;52.700;7.306;2023-09-07T03:40:55;9.27;;;5.25;;
11187;SDS011;5650;52.700;7.306;2023-09-07T03:43:23;8.93;;;5.07;;
11187;SDS011;5650;52.700;7.306;2023-09-07T03:45:50;6.28;;;5.57;;
11187;SDS011;5650;52.700;7.306;2023-09-07T03:48:17;7.43;;;5.35;;
11187;SDS011;5650;52.700;7.306;2023-09-07T03:50:46;8.40;;;5.63;;
11187;SDS011;5650;52.700;7.306;2023-09-07T03:53:22;9.68;;;5.20;;
11187;SDS011;5650;52.700;7.306;2023-09-07T03:55:49;7.70;;;4.80;;
11187;SDS011;5650;52.700;7.306;2023-09-07T03:58:19;8.13;;;5.63;;
11187;SDS011;5650;52.700;7.306;2023-09-07T04:00:49;6.35;;;5.18;;
11187;SDS011;5650;52.700;7.306;2023-09-07T04:03:22;8.20;;;4.82;;
11187;SDS011;5650;52.700;7.306;2023-09-07T04:05:51;6.20;;;5.22;;
11187;SDS011;5650;52.700;7.306;2023-09-07T04:08:18;5.55;;;5.05;;
11187;SDS011;5650;52.700;7.306;2023-09-07T04:10:45;6.45;;;4.43;;
11187;SDS011;5650;52.700;7.306;2023-09-07T04:13:15;8.43;;;5.20;;
11187;SDS011;5650;52.700;7.306;2023-09-07T04:15:43;6.07;;;5.18;;
11187;SDS011;5650;52.700;7.306;2023-09-07T04:18:11;8.75;;;5.30;;
11187;SDS011;5650;52.700;7.306;2023-09-07T04:20:40;6.75;;;6.05;;
11187;SDS011;5650;52.700;7.306;2023-09-07T04:23:09;7.15;;;5.95;;
11187;SDS011;5650;52.700;7.306;2023-09-07T04:25:36;6.80;;;5.35;;
11187;SDS011;5650;52.700;7.306;2023-09-07T04:28:04;10.60;;;5.72;;
11187;SDS011;5650;52.700;7.306;2023-09-07T04:30:32;11.18;;;5.97;;
11187;SDS011;5650;52.700;7.306;2023-09-07T04:32:59;6.93;;;5.85;;
11187;SDS011;5650;52.700;7.306;2023-09-07T04:35:27;10.48;;;6.25;;
11187;SDS011;5650;52.700;7.306;2023-09-07T04:37:56;9.95;;;5.47;;
11187;SDS011;5650;52.700;7.306;2023-09-07T04:40:27;8.75;;;6.28;;
11187;SDS011;5650;52.700;7.306;2023-09-07T04:42:54;8.52;;;5.47;;
11187;SDS011;5650;52.700;7.306;2023-09-07T04:45:21;9.02;;;6.10;;
11187;SDS011;5650;52.700;7.306;2023-09-07T04:47:49;7.40;;;5.70;;
11187;SDS011;5650;52.700;7.306;2023-09-07T04:50:16;12.23;;;6.53;;
11187;SDS011;5650;52.700;7.306;2023-09-07T04:52:43;8.40;;;5.90;;
11187;SDS011;5650;52.700;7.306;2023-09-07T04:55:11;9.45;;;6.20;;
11187;SDS011;5650;52.700;7.306;2023-09-07T04:57:39;9.02;;;6.07;;
11187;SDS011;5650;52.700;7.306;2023-09-07T05:00:07;9.63;;;6.10;;
11187;SDS011;5650;52.700;7.306;2023-09-07T05:02:37;9.35;;;5.82;;
11187;SDS011;5650;52.700;7.306;2023-09-07T05:05:08;8.13;;;5.88;;
11187;SDS011;5650;52.700;7.306;2023-09-07T05:07:35;8.30;;;6.22;;
11187;SDS011;5650;52.700;7.306;2023-09-07T05:10:02;11.38;;;6.57;;
11187;SDS011;5650;52.700;7.306;2023-09-07T05:12:31;8.00;;;5.95;;
11187;SDS011;5650;52.700;7.306;2023-09-07T05:15:00;9.30;;;6.18;;
11187;SDS011;5650;52.700;7.306;2023-09-07T05:17:27;9.48;;;6.80;;
11187;SDS011;5650;52.700;7.306;2023-09-07T05:19:54;11.23;;;7.63;;
11187;SDS011;5650;52.700;7.306;2023-09-07T05:22:22;12.18;;;8.68;;
11187;SDS011;5650;52.700;7.306;2023-09-07T05:24:51;14.70;;;6.82;;
11187;SDS011;5650;52.700;7.306;2023-09-07T05:27:18;8.13;;;5.55;;
11187;SDS011;5650;52.700;7.306;2023-09-07T05:29:51;7.32;;;6.18;;
11187;SDS011;5650;52.700;7.306;2023-09-07T05:32:25;7.97;;;6.10;;
11187;SDS011;5650;52.700;7.306;2023-09-07T05:34:52;7.60;;;6.18;;
11187;SDS011;5650;52.700;7.306;2023-09-07T05:37:19;9.38;;;6.15;;
11187;SDS011;5650;52.700;7.306;2023-09-07T05:39:47;9.35;;;5.75;;
11187;SDS011;5650;52.700;7.306;2023-09-07T05:42:14;8.77;;;6.00;;
11187;SDS011;5650;52.700;7.306;2023-09-07T05:44:45;8.90;;;4.70;;
11187;SDS011;5650;52.700;7.306;2023-09-07T05:47:12;6.72;;;5.03;;
11187;SDS011;5650;52.700;7.306;2023-09-07T05:49:43;7.15;;;4.95;;
11187;SDS011;5650;52.700;7.306;2023-09-07T05:52:10;5.55;;;3.97;;
11187;SDS011;5650;52.700;7.306;2023-09-07T05:54:38;7.97;;;4.03;;
11187;SDS011;5650;52.700;7.306;2023-09-07T05:57:08;6.03;;;4.30;;
11187;SDS011;5650;52.700;7.306;2023-09-07T05:59:37;5.82;;;4.53;;
11187;SDS011;5650;52.700;7.306;2023-09-07T06:02:04;6.20;;;4.35;;
11187;SDS011;5650;52.700;7.306;2023-09-07T06:04:36;8.07;;;4.07;;
11187;SDS011;5650;52.700;7.306;2023-09-07T06:07:09;7.40;;;4.32;;
11187;SDS011;5650;52.700;7.306;2023-09-07T06:09:36;6.18;;;4.05;;
11187;SDS011;5650;52.700;7.306;2023-09-07T06:12:03;6.43;;;4.18;;
11187;SDS011;5650;52.700;7.306;2023-09-07T06:14:31;6.97;;;4.18;;
11187;SDS011;5650;52.700;7.306;2023-09-07T06:16:59;5.22;;;3.85;;
11187;SDS011;5650;52.700;7.306;2023-09-07T06:19:26;8.13;;;3.92;;
11187;SDS011;5650;52.700;7.306;2023-09-07T06:21:57;7.43;;;4.32;;
11187;SDS011;5650;52.700;7.306;2023-09-07T06:24:25;6.97;;;4.07;;
11187;SDS011;5650;52.700;7.306;2023-09-07T06:26:53;6.97;;;3.80;;
11187;SDS011;5650;52.700;7.306;2023-09-07T06:29:20;7.43;;;3.88;;
11187;SDS011;5650;52.700;7.306;2023-09-07T06:31:49;6.53;;;3.53;;
11187;SDS011;5650;52.700;7.306;2023-09-07T06:34:20;7.85;;;4.15;;
11187;SDS011;5650;52.700;7.306;2023-09-07T06:36:50;6.40;;;3.50;;
11187;SDS011;5650;52.700;7.306;2023-09-07T06:39:20;5.80;;;4.10;;
11187;SDS011;5650;52.700;7.306;2023-09-07T06:41:49;8.15;;;4.07;;
11187;SDS011;5650;52.700;7.306;2023-09-07T06:44:16;6.88;;;3.50;;
11187;SDS011;5650;52.700;7.306;2023-09-07T06:46:46;4.60;;;3.50;;
11187;SDS011;5650;52.700;7.306;2023-09-07T06:49:22;9.10;;;3.97;;
11187;SDS011;5650;52.700;7.306;2023-09-07T06:51:55;7.32;;;3.70;;
11187;SDS011;5650;52.700;7.306;2023-09-07T06:54:22;8.63;;;4.10;;
11187;SDS011;5650;52.700;7.306;2023-09-07T06:56:51;7.22;;;3.85;;
11187;SDS011;5650;52.700;7.306;2023-09-07T06:59:18;6.22;;;3.60;;
11187;SDS011;5650;52.700;7.306;2023-09-07T07:01:48;7.88;;;3.70;;
11187;SDS011;5650;52.700;7.306;2023-09-07T07:04:18;9.80;;;3.80;;
11187;SDS011;5650;52.700;7.306;2023-09-07T07:06:45;6.28;;;3.90;;
11187;SDS011;5650;52.700;7.306;2023-09-07T07:09:12;8.32;;;3.88;;
11187;SDS011;5650;52.700;7.306;2023-09-07T07:11:39;8.23;;;3.80;;
11187;SDS011;5650;52.700;7.306;2023-09-07T07:14:09;5.68;;;3.80;;
11187;SDS011;5650;52.700;7.306;2023-09-07T07:16:37;6.93;;;3.40;;
11187;SDS011;5650;52.700;7.306;2023-09-07T07:19:07;7.95;;;3.58;;
11187;SDS011;5650;52.700;7.306;2023-09-07T07:21:38;6.35;;;3.60;;
11187;SDS011;5650;52.700;7.306;2023-09-07T07:24:11;3.47;;;3.17;;
11187;SDS011;5650;52.700;7.306;2023-09-07T07:26:38;9.73;;;4.05;;
11187;SDS011;5650;52.700;7.306;2023-09-07T07:29:07;9.07;;;3.58;;
11187;SDS011;5650;52.700;7.306;2023-09-07T07:31:38;6.43;;;3.20;;
11187;SDS011;5650;52.700;7.306;2023-09-07T07:34:06;6.90;;;3.33;;
11187;SDS011;5650;52.700;7.306;2023-09-07T07:36:39;3.85;;;3.20;;
11187;SDS011;5650;52.700;7.306;2023-09-07T07:39:06;7.70;;;3.83;;
11187;SDS011;5650;52.700;7.306;2023-09-07T07:41:34;5.13;;;3.30;;
11187;SDS011;5650;52.700;7.306;2023-09-07T07:44:01;6.18;;;3.40;;
11187;SDS011;5650;52.700;7.306;2023-09-07T07:46:30;4.65;;;3.33;;
11187;SDS011;5650;52.700;7.306;2023-09-07T07:48:57;7.63;;;3.70;;
11187;SDS011;5650;52.700;7.306;2023-09-07T07:51:24;13.25;;;3.35;;
11187;SDS011;5650;52.700;7.306;2023-09-07T07:53:53;7.32;;;3.88;;
11187;SDS011;5650;52.700;7.306;2023-09-07T07:56:21;8.02;;;3.40;;
11187;SDS011;5650;52.700;7.306;2023-09-07T07:58:52;7.40;;;3.83;;
11187;SDS011;5650;52.700;7.306;2023-09-07T08:01:22;5.30;;;3.63;;
11187;SDS011;5650;52.700;7.306;2023-09-07T08:03:52;6.32;;;3.50;;
11187;SDS011;5650;52.700;7.306;2023-09-07T08:06:25;4.22;;;3.70;;
11187;SDS011;5650;52.700;7.306;2023-09-07T08:08:52;3.95;;;3.03;;
11187;SDS011;5650;52.700;7.306;2023-09-07T08:11:19;7.88;;;3.80;;
11187;SDS011;5650;52.700;7.306;2023-09-07T08:13:46;6.00;;;3.30;;
11187;SDS011;5650;52.700;7.306;2023-09-07T08:16:16;5.65;;;3.20;;
11187;SDS011;5650;52.700;7.306;2023-09-07T08:18:47;6.47;;;3.17;;
11187;SDS011;5650;52.700;7.306;2023-09-07T08:21:18;8.75;;;3.38;;
11187;SDS011;5650;52.700;7.306;2023-09-07T08:23:45;6.45;;;3.20;;
11187;SDS011;5650;52.700;7.306;2023-09-07T08:26:24;7.60;;;3.65;;
11187;SDS011;5650;52.700;7.306;2023-09-07T08:28:51;6.88;;;3.72;;
11187;SDS011;5650;52.700;7.306;2023-09-07T08:31:21;5.78;;;3.70;;
11187;SDS011;5650;52.700;7.306;2023-09-07T08:33:48;6.90;;;3.38;;
11187;SDS011;5650;52.700;7.306;2023-09-07T08:36:20;6.82;;;3.60;;
11187;SDS011;5650;52.700;7.306;2023-09-07T08:38:52;3.97;;;3.67;;
11187;SDS011;5650;52.700;7.306;2023-09-07T08:41:24;9.70;;;3.65;;
11187;SDS011;5650;52.700;7.306;2023-09-07T08:43:53;6.78;;;3.75;;
11187;SDS011;5650;52.700;7.306;2023-09-07T08:46:25;5.53;;;3.58;;
11187;SDS011;5650;52.700;7.306;2023-09-07T08:48:53;7.32;;;3.75;;
11187;SDS011;5650;52.700;7.306;2023-09-07T08:51:26;5.57;;;3.55;;
11187;SDS011;5650;52.700;7.306;2023-09-07T08:53:54;9.52;;;3.60;;
11187;SDS011;5650;52.700;7.306;2023-09-07T08:56:21;10.45;;;4.07;;
11187;SDS011;5650;52.700;7.306;2023-09-07T08:58:49;5.32;;;3.55;;
11187;SDS011;5650;52.700;7.306;2023-09-07T09:01:16;6.90;;;3.60;;
11187;SDS011;5650;52.700;7.306;2023-09-07T09:03:47;5.35;;;3.80;;
11187;SDS011;5650;52.700;7.306;2023-09-07T09:06:20;7.85;;;3.50;;
11187;SDS011;5650;52.700;7.306;2023-09-07T09:08:56;5.40;;;3.50;;
11187;SDS011;5650;52.700;7.306;2023-09-07T09:11:24;8.02;;;3.55;;
11187;SDS011;5650;52.700;7.306;2023-09-07T09:13:53;4.20;;;3.55;;
11187;SDS011;5650;52.700;7.306;2023-09-07T09:16:20;4.75;;;3.75;;
11187;SDS011;5650;52.700;7.306;2023-09-07T09:18:51;7.75;;;3.72;;
11187;SDS011;5650;52.700;7.306;2023-09-07T09:21:19;5.38;;;3.85;;
11187;SDS011;5650;52.700;7.306;2023-09-07T09:23:47;4.70;;;3.75;;
11187;SDS011;5650;52.700;7.306;2023-09-07T09:26:17;7.28;;;4.25;;
11187;SDS011;5650;52.700;7.306;2023-09-07T09:28:45;5.70;;;4.05;;
11187;SDS011;5650;52.700;7.306;2023-09-07T09:31:16;8.35;;;3.72;;
11187;SDS011;5650;52.700;7.306;2023-09-07T09:33:47;8.65;;;3.53;;
11187;SDS011;5650;52.700;7.306;2023-09-07T09:36:16;7.43;;;3.42;;
11187;SDS011;5650;52.700;7.306;2023-09-07T09:38:50;5.88;;;3.50;;
11187;SDS011;5650;52.700;7.306;2023-09-07T09:41:20;5.50;;;3.33;;
11187;SDS011;5650;52.700;7.306;2023-09-07T09:43:47;6.40;;;3.22;;
11187;SDS011;5650;52.700;7.306;2023-09-07T09:46:16;4.85;;;3.58;;
11187;SDS011;5650;52.700;7.306;2023-09-07T09:48:46;6.63;;;3.65;;
11187;SDS011;5650;52.700;7.306;2023-09-07T09:51:17;6.22;;;3.72;;
11187;SDS011;5650;52.700;7.306;2023-09-07T09:53:48;5.25;;;3.65;;
11187;SDS011;5650;52.700;7.306;2023-09-07T09:56:15;8.60;;;4.13;;
11187;SDS011;5650;52.700;7.306;2023-09-07T09:58:47;10.13;;;3.70;;
11187;SDS011;5650;52.700;7.306;2023-09-07T10:01:14;8.27;;;3.70;;
11187;SDS011;5650;52.700;7.306;2023-09-07T10:03:42;5.10;;;3.78;;
11187;SDS011;5650;52.700;7.306;2023-09-07T10:06:20;6.60;;;3.22;;
11187;SDS011;5650;52.700;7.306;2023-09-07T10:08:52;11.05;;;4.35;;
11187;SDS011;5650;52.700;7.306;2023-09-07T10:11:34;7.35;;;3.85;;
11187;SDS011;5650;52.700;7.306;2023-09-07T10:14:09;10.27;;;3.65;;
11187;SDS011;5650;52.700;7.306;2023-09-07T10:16:44;5.93;;;3.83;;
11187;SDS011;5650;52.700;7.306;2023-09-07T10:19:15;5.40;;;3.65;;
11187;SDS011;5650;52.700;7.306;2023-09-07T10:21:43;7.85;;;4.10;;
11187;SDS011;5650;52.700;7.306;2023-09-07T10:24:25;7.78;;;3.28;;
11187;SDS011;5650;52.700;7.306;2023-09-07T10:26:58;5.82;;;3.63;;
11187;SDS011;5650;52.700;7.306;2023-09-07T10:29:27;4.95;;;3.33;;
11187;SDS011;5650;52.700;7.306;2023-09-07T10:32:04;5.70;;;3.55;;
11187;SDS011;5650;52.700;7.306;2023-09-07T10:34:34;13.05;;;3.60;;
11187;SDS011;5650;52.700;7.306;2023-09-07T10:37:05;6.25;;;3.50;;
11187;SDS011;5650;52.700;7.306;2023-09-07T10:39:35;7.20;;;3.75;;
11187;SDS011;5650;52.700;7.306;2023-09-07T10:42:03;6.53;;;3.55;;
11187;SDS011;5650;52.700;7.306;2023-09-07T10:44:32;7.30;;;3.55;;
11187;SDS011;5650;52.700;7.306;2023-09-07T10:47:05;6.05;;;3.50;;
11187;SDS011;5650;52.700;7.306;2023-09-07T10:49:33;6.22;;;3.30;;
11187;SDS011;5650;52.700;7.306;2023-09-07T10:52:05;6.70;;;3.53;;
11187;SDS011;5650;52.700;7.306;2023-09-07T10:54:33;7.47;;;3.40;;
11187;SDS011;5650;52.700;7.306;2023-09-07T10:57:08;6.43;;;3.42;;
11187;SDS011;5650;52.700;7.306;2023-09-07T10:59:37;4.82;;;3.22;;
11187;SDS011;5650;52.700;7.306;2023-09-07T11:02:05;7.43;;;3.63;;
11187;SDS011;5650;52.700;7.306;2023-09-07T11:04:36;7.80;;;3.35;;
11187;SDS011;5650;52.700;7.306;2023-09-07T11:07:09;4.57;;;3.08;;
11187;SDS011;5650;52.700;7.306;2023-09-07T11:09:39;7.00;;;3.78;;
11187;SDS011;5650;52.700;7.306;2023-09-07T11:12:07;4.80;;;3.67;;
11187;SDS011;5650;52.700;7.306;2023-09-07T11:14:34;4.95;;;3.70;;
11187;SDS011;5650;52.700;7.306;2023-09-07T11:17:08;7.20;;;3.30;;
11187;SDS011;5650;52.700;7.306;2023-09-07T11:19:36;10.48;;;3.95;;
11187;SDS011;5650;52.700;7.306;2023-09-07T11:22:03;7.75;;;3.75;;
11187;SDS011;5650;52.700;7.306;2023-09-07T11:24:39;7.60;;;3.67;;
11187;SDS011;5650;52.700;7.306;2023-09-07T11:27:08;6.47;;;3.35;;
11187;SDS011;5650;52.700;7.306;2023-09-07T11:29:36;9.23;;;3.67;;
11187;SDS011;5650;52.700;7.306;2023-09-07T11:32:14;4.25;;;3.25;;
11187;SDS011;5650;52.700;7.306;2023-09-07T11:34:50;7.25;;;2.95;;
11187;SDS011;5650;52.700;7.306;2023-09-07T11:37:17;8.27;;;3.72;;
11187;SDS011;5650;52.700;7.306;2023-09-07T11:39:49;5.68;;;3.25;;
11187;SDS011;5650;52.700;7.306;2023-09-07T11:42:22;3.55;;;3.00;;
11187;SDS011;5650;52.700;7.306;2023-09-07T11:44:52;7.05;;;2.90;;
11187;SDS011;5650;52.700;7.306;2023-09-07T11:47:27;4.85;;;3.08;;
11187;SDS011;5650;52.700;7.306;2023-09-07T11:49:54;4.53;;;2.95;;
11187;SDS011;5650;52.700;7.306;2023-09-07T11:52:21;5.32;;;2.97;;
11187;SDS011;5650;52.700;7.306;2023-09-07T11:54:48;5.43;;;3.13;;
11187;SDS011;5650;52.700;7.306;2023-09-07T11:57:16;7.57;;;3.20;;
11187;SDS011;5650;52.700;7.306;2023-09-07T11:59:51;4.07;;;2.28;;
11187;SDS011;5650;52.700;7.306;2023-09-07T12:02:21;4.68;;;2.70;;
11187;SDS011;5650;52.700;7.306;2023-09-07T12:04:50;4.57;;;3.00;;
11187;SDS011;5650;52.700;7.306;2023-09-07T12:07:20;5.55;;;3.03;;
11187;SDS011;5650;52.700;7.306;2023-09-07T12:09:51;4.40;;;2.90;;
11187;SDS011;5650;52.700;7.306;2023-09-07T12:12:23;4.35;;;2.75;;
11187;SDS011;5650;52.700;7.306;2023-09-07T12:14:50;5.88;;;3.20;;
11187;SDS011;5650;52.700;7.306;2023-09-07T12:17:17;5.55;;;3.10;;
11187;SDS011;5650;52.700;7.306;2023-09-07T12:19:47;4.13;;;2.90;;
11187;SDS011;5650;52.700;7.306;2023-09-07T12:22:17;5.55;;;2.80;;
11187;SDS011;5650;52.700;7.306;2023-09-07T12:24:44;6.50;;;3.15;;
11187;SDS011;5650;52.700;7.306;2023-09-07T12:27:15;6.20;;;3.00;;
11187;SDS011;5650;52.700;7.306;2023-09-07T12:29:43;4.43;;;2.78;;
11187;SDS011;5650;52.700;7.306;2023-09-07T12:32:10;4.75;;;3.00;;
11187;SDS011;5650;52.700;7.306;2023-09-07T12:34:38;5.95;;;2.88;;
11187;SDS011;5650;52.700;7.306;2023-09-07T12:37:06;4.40;;;3.05;;
11187;SDS011;5650;52.700;7.306;2023-09-07T12:39:33;7.25;;;3.13;;
11187;SDS011;5650;52.700;7.306;2023-09-07T12:42:03;4.53;;;2.88;;
11187;SDS011;5650;52.700;7.306;2023-09-07T12:44:30;4.57;;;3.10;;
11187;SDS011;5650;52.700;7.306;2023-09-07T12:47:02;3.97;;;3.10;;
11187;SDS011;5650;52.700;7.306;2023-09-07T12:49:30;7.28;;;3.33;;
11187;SDS011;5650;52.700;7.306;2023-09-07T12:51:57;4.47;;;3.00;;
11187;SDS011;5650;52.700;7.306;2023-09-07T12:54:26;5.70;;;3.53;;
11187;SDS011;5650;52.700;7.306;2023-09-07T12:56:54;6.18;;;3.22;;
11187;SDS011;5650;52.700;7.306;2023-09-07T12:59:21;8.10;;;3.15;;
11187;SDS011;5650;52.700;7.306;2023-09-07T13:01:48;5.78;;;3.20;;
11187;SDS011;5650;52.700;7.306;2023-09-07T13:04:15;6.50;;;3.20;;
11187;SDS011;5650;52.700;7.306;2023-09-07T13:06:45;8.45;;;3.33;;
11187;SDS011;5650;52.700;7.306;2023-09-07T13:09:18;4.45;;;3.25;;
11187;SDS011;5650;52.700;7.306;2023-09-07T13:11:47;6.97;;;3.50;;
11187;SDS011;5650;52.700;7.306;2023-09-07T13:14:14;5.15;;;3.67;;
11187;SDS011;5650;52.700;7.306;2023-09-07T13:16:49;5.80;;;3.40;;
11187;SDS011;5650;52.700;7.306;2023-09-07T13:19:22;7.07;;;3.38;;
11187;SDS011;5650;52.700;7.306;2023-09-07T13:21:49;7.10;;;3.40;;
11187;SDS011;5650;52.700;7.306;2023-09-07T13:24:16;5.10;;;2.95;;
11187;SDS011;5650;52.700;7.306;2023-09-07T13:26:50;3.78;;;2.90;;
11187;SDS011;5650;52.700;7.306;2023-09-07T13:29:17;5.38;;;3.50;;
11187;SDS011;5650;52.700;7.306;2023-09-07T13:31:44;14.13;;;3.10;;
11187;SDS011;5650;52.700;7.306;2023-09-07T13:34:11;3.88;;;3.40;;
11187;SDS011;5650;52.700;7.306;2023-09-07T13:36:41;3.22;;;2.92;;
11187;SDS011;5650;52.700;7.306;2023-09-07T13:39:12;2.95;;;2.70;;
11187;SDS011;5650;52.700;7.306;2023-09-07T13:41:39;5.53;;;3.25;;
11187;SDS011;5650;52.700;7.306;2023-09-07T13:44:07;7.82;;;3.40;;
11187;SDS011;5650;52.700;7.306;2023-09-07T13:46:41;3.40;;;3.00;;
11187;SDS011;5650;52.700;7.306;2023-09-07T13:49:12;6.95;;;3.17;;
11187;SDS011;5650;52.700;7.306;2023-09-07T13:51:42;3.33;;;3.00;;
11187;SDS011;5650;52.700;7.306;2023-09-07T13:54:09;6.45;;;3.40;;
11187;SDS011;5650;52.700;7.306;2023-09-07T13:56:44;5.85;;;3.17;;
11187;SDS011;5650;52.700;7.306;2023-09-07T13:59:13;4.72;;;2.92;;
11187;SDS011;5650;52.700;7.306;2023-09-07T14:01:43;5.10;;;3.05;;
11187;SDS011;5650;52.700;7.306;2023-09-07T14:04:10;4.55;;;3.13;;
11187;SDS011;5650;52.700;7.306;2023-09-07T14:06:40;6.40;;;3.00;;
11187;SDS011;5650;52.700;7.306;2023-09-07T14:09:07;5.03;;;3.10;;
11187;SDS011;5650;52.700;7.306;2023-09-07T14:11:35;10.63;;;3.03;;
11187;SDS011;5650;52.700;7.306;2023-09-07T14:14:02;4.05;;;3.10;;
11187;SDS011;5650;52.700;7.306;2023-09-07T14:16:43;7.30;;;2.65;;
11187;SDS011;5650;52.700;7.306;2023-09-07T14:19:11;3.67;;;2.92;;
11187;SDS011;5650;52.700;7.306;2023-09-07T14:21:38;4.43;;;2.80;;
11187;SDS011;5650;52.700;7.306;2023-09-07T14:24:05;5.13;;;2.75;;
11187;SDS011;5650;52.700;7.306;2023-09-07T14:26:32;6.28;;;3.10;;
11187;SDS011;5650;52.700;7.306;2023-09-07T14:29:05;10.80;;;3.10;;
11187;SDS011;5650;52.700;7.306;2023-09-07T14:31:34;5.43;;;2.65;;
11187;SDS011;5650;52.700;7.306;2023-09-07T14:34:11;6.03;;;2.83;;
11187;SDS011;5650;52.700;7.306;2023-09-07T14:36:39;4.88;;;2.95;;
11187;SDS011;5650;52.700;7.306;2023-09-07T14:39:06;5.18;;;2.95;;
11187;SDS011;5650;52.700;7.306;2023-09-07T14:41:34;5.20;;;3.42;;
11187;SDS011;5650;52.700;7.306;2023-09-07T14:44:01;5.32;;;2.78;;
11187;SDS011;5650;52.700;7.306;2023-09-07T14:46:28;4.63;;;2.92;;
11187;SDS011;5650;52.700;7.306;2023-09-07T14:48:59;6.93;;;3.05;;
11187;SDS011;5650;52.700;7.306;2023-09-07T14:51:27;4.75;;;3.30;;
11187;SDS011;5650;52.700;7.306;2023-09-07T14:53:54;7.95;;;2.90;;
11187;SDS011;5650;52.700;7.306;2023-09-07T14:56:21;6.53;;;2.70;;
11187;SDS011;5650;52.700;7.306;2023-09-07T14:58:48;9.32;;;3.08;;
11187;SDS011;5650;52.700;7.306;2023-09-07T15:01:15;8.27;;;3.10;;
11187;SDS011;5650;52.700;7.306;2023-09-07T15:03:43;7.78;;;3.00;;
11187;SDS011;5650;52.700;7.306;2023-09-07T15:06:14;5.78;;;2.80;;
11187;SDS011;5650;52.700;7.306;2023-09-07T15:08:42;2.80;;;2.60;;
11187;SDS011;5650;52.700;7.306;2023-09-07T15:11:09;7.60;;;2.75;;
11187;SDS011;5650;52.700;7.306;2023-09-07T15:13:39;6.85;;;3.17;;